createdAt,value
2023-05-01T00:01:36.731Z,69.21
2023-05-01T00:04:39.783Z,69.17
2023-05-01T00:07:41.472Z,68.26
2023-05-01T00:10:43.089Z,66.78
2023-05-01T00:13:44.721Z,66.29
2023-05-01T00:16:47.049Z,66.12
2023-05-01T00:19:52.957Z,65.85
2023-05-01T00:22:54.629Z,65.78
2023-05-01T00:25:56.310Z,65.85
2023-05-01T00:28:58.258Z,65.73
2023-05-01T00:32:00.284Z,65.48
2023-05-01T00:35:03.436Z,65.48
2023-05-01T00:38:05.347Z,65.12
2023-05-01T00:41:07.036Z,64.59
2023-05-01T00:44:08.964Z,64.80
2023-05-01T00:47:10.768Z,63.90
2023-05-01T00:50:14.052Z,63.96
2023-05-01T00:53:15.706Z,64.16
2023-05-01T00:56:17.444Z,64.17
2023-05-01T00:59:19.199Z,64.31
2023-05-01T01:02:20.856Z,64.19
2023-05-01T01:05:27.885Z,64.27
2023-05-01T01:08:33.029Z,64.70
2023-05-01T01:11:42.956Z,65.38
2023-05-01T01:14:50.995Z,65.43
2023-05-01T01:17:59.399Z,65.81
2023-05-01T01:21:12.496Z,65.55
2023-05-01T01:24:45.808Z,65.68
2023-05-01T01:28:05.488Z,65.53
2023-05-01T01:31:14.243Z,64.91
2023-05-01T01:34:20.873Z,64.73
2023-05-01T01:37:25.782Z,64.29
2023-05-01T01:40:35.078Z,64.64
2023-05-01T01:43:40.604Z,63.54
2023-05-01T01:46:43.158Z,63.74
2023-05-01T01:49:50.023Z,63.24
2023-05-01T01:52:54.476Z,63.28
2023-05-01T01:55:58.029Z,62.56
2023-05-01T01:59:01.957Z,63.36
2023-05-01T02:02:05.561Z,63.28
2023-05-01T02:05:14.746Z,62.94
2023-05-01T02:08:17.609Z,62.89
2023-05-01T02:11:21.786Z,62.84
2023-05-01T02:14:26.814Z,63.46
2023-05-01T02:17:30.093Z,62.59
2023-05-01T02:20:33.980Z,62.22
2023-05-01T02:23:36.263Z,61.70
2023-05-01T02:26:43.014Z,61.29
2023-05-01T02:29:44.841Z,61.91
2023-05-01T02:32:46.617Z,62.70
2023-05-01T02:35:49.717Z,62.99
2023-05-01T02:38:51.566Z,63.82
2023-05-01T02:41:57.236Z,64.49
2023-05-01T02:45:03.052Z,64.22
2023-05-01T02:48:06.802Z,63.95
2023-05-01T02:51:18.327Z,64.05
2023-05-01T02:54:20.785Z,63.90
2023-05-01T02:57:23.083Z,64.03
2023-05-01T03:00:24.886Z,63.68
2023-05-01T03:03:26.534Z,63.17
2023-05-01T03:06:29.829Z,62.79
2023-05-01T03:09:32.073Z,61.99
2023-05-01T03:12:34.168Z,61.86
2023-05-01T03:15:35.807Z,61.56
2023-05-01T03:18:37.840Z,61.39
2023-05-01T03:21:40.903Z,61.40
2023-05-01T03:24:42.663Z,60.49
2023-05-01T03:27:44.260Z,60.42
2023-05-01T03:30:45.911Z,59.37
2023-05-01T03:33:47.698Z,59.44
2023-05-01T03:36:50.716Z,59.01
2023-05-01T03:39:54.486Z,57.91
2023-05-01T03:42:56.348Z,57.92
2023-05-01T03:45:58.026Z,56.86
2023-05-01T03:48:59.660Z,56.50
2023-05-01T03:52:02.673Z,55.83
2023-05-01T03:55:05.221Z,55.82
2023-05-01T03:58:06.973Z,55.51
2023-05-01T04:01:08.567Z,55.93
2023-05-01T04:04:10.262Z,56.49
2023-05-01T04:07:13.970Z,56.80
2023-05-01T04:10:15.791Z,57.70
2023-05-01T04:13:17.573Z,57.10
2023-05-01T04:16:19.639Z,57.75
2023-05-01T04:19:21.354Z,57.23
2023-05-01T04:22:24.380Z,57.08
2023-05-01T04:25:26.427Z,57.59
2023-05-01T04:28:28.078Z,58.12
2023-05-01T04:31:30.008Z,58.08
2023-05-01T04:34:31.600Z,58.89
2023-05-01T04:37:34.809Z,57.35
2023-05-01T04:40:36.692Z,57.49
2023-05-01T04:43:38.319Z,56.99
2023-05-01T04:46:39.965Z,55.93
2023-05-01T04:49:41.567Z,54.95
2023-05-01T04:52:44.527Z,55.76
2023-05-01T04:55:46.668Z,54.82
2023-05-01T04:58:48.319Z,53.75
2023-05-01T05:01:49.974Z,53.80
2023-05-01T05:04:51.646Z,53.06
2023-05-01T05:07:54.663Z,52.44
2023-05-01T05:10:57.394Z,52.02
2023-05-01T05:13:59.058Z,52.43
2023-05-01T05:17:00.999Z,51.81
2023-05-01T05:20:02.997Z,51.13
2023-05-01T05:23:07.358Z,49.29
2023-05-01T05:26:09.921Z,49.76
2023-05-01T05:29:11.886Z,49.50
2023-05-01T05:32:13.787Z,49.07
2023-05-01T05:35:15.657Z,49.60
2023-05-01T05:38:20.618Z,49.29
2023-05-01T05:41:22.282Z,49.33
2023-05-01T05:44:23.863Z,50.19
2023-05-01T05:47:25.637Z,48.58
2023-05-01T05:50:27.310Z,49.67
2023-05-01T05:53:30.435Z,49.34
2023-05-01T05:56:32.421Z,48.35
2023-05-01T05:59:34.066Z,47.88
2023-05-01T06:02:36.343Z,47.15
2023-05-01T06:05:38.132Z,47.58
2023-05-01T06:08:41.140Z,46.38
2023-05-01T06:11:43.057Z,46.42
2023-05-01T06:14:44.907Z,46.40
2023-05-01T06:17:46.783Z,45.85
2023-05-01T06:20:48.545Z,45.60
2023-05-01T06:23:51.483Z,43.21
2023-05-01T06:26:53.116Z,43.94
2023-05-01T06:29:55.423Z,43.50
2023-05-01T06:32:57.546Z,43.28
2023-05-01T06:35:59.398Z,43.86
2023-05-01T06:39:02.547Z,41.68
2023-05-01T06:42:04.543Z,40.38
2023-05-01T06:45:12.302Z,39.26
2023-05-01T06:48:14.201Z,39.82
2023-05-01T06:51:15.968Z,40.09
2023-05-01T06:54:19.034Z,39.12
2023-05-01T06:57:20.606Z,39.99
2023-05-01T07:00:22.657Z,38.03
2023-05-01T07:03:24.417Z,38.07
2023-05-01T07:06:26.424Z,38.18
2023-05-01T07:09:29.755Z,38.63
2023-05-01T07:12:31.852Z,37.52
2023-05-01T07:15:33.634Z,37.41
2023-05-01T07:18:35.623Z,37.96
2023-05-01T07:21:37.344Z,36.49
2023-05-01T07:24:40.382Z,37.02
2023-05-01T07:27:42.477Z,37.18
2023-05-01T07:30:44.167Z,38.29
2023-05-01T07:33:45.858Z,37.39
2023-05-01T07:36:47.486Z,37.97
2023-05-01T07:39:50.492Z,38.60
2023-05-01T07:42:54.483Z,36.27
2023-05-01T07:45:57.651Z,35.36
2023-05-01T07:48:59.243Z,34.91
2023-05-01T07:52:00.872Z,36.49
2023-05-01T07:55:06.427Z,35.35
2023-05-01T07:58:08.096Z,34.28
2023-05-01T08:01:09.844Z,35.29
2023-05-01T08:04:11.743Z,35.14
2023-05-01T08:07:13.468Z,34.64
2023-05-01T08:10:16.868Z,34.90
2023-05-01T08:13:18.497Z,34.64
2023-05-01T08:16:22.030Z,34.33
2023-05-01T08:19:24.073Z,34.12
2023-05-01T08:22:25.793Z,34.02
2023-05-01T08:25:28.846Z,33.45
2023-05-01T08:28:30.478Z,32.81
2023-05-01T08:31:32.103Z,32.39
2023-05-01T08:34:33.941Z,33.14
2023-05-01T08:37:35.801Z,33.71
2023-05-01T08:40:40.757Z,34.95
2023-05-01T08:43:43.278Z,34.69
2023-05-01T08:46:47.820Z,32.44
2023-05-01T08:49:52.372Z,32.90
2023-05-01T08:52:54.829Z,33.97
2023-05-01T08:56:00.210Z,33.81
2023-05-01T08:59:04.463Z,33.62
2023-05-01T09:02:07.927Z,33.11
2023-05-01T09:05:10.547Z,32.60
2023-05-01T09:08:12.231Z,33.40
2023-05-01T09:11:15.348Z,34.01
2023-05-01T09:14:17.183Z,33.76
2023-05-01T09:17:20.457Z,34.35
2023-05-01T09:20:24.263Z,35.06
2023-05-01T09:23:25.954Z,33.65
2023-05-01T09:26:29.052Z,33.58
2023-05-01T09:29:38.770Z,33.79
2023-05-01T09:32:42.593Z,32.13
2023-05-01T09:35:52.104Z,32.33
2023-05-01T09:38:53.899Z,33.07
2023-05-01T09:41:56.961Z,32.13
2023-05-01T09:44:59.104Z,31.78
2023-05-01T09:48:08.466Z,33.87
2023-05-01T09:51:25.820Z,31.81
2023-05-01T09:54:27.484Z,31.72
2023-05-01T09:57:36.995Z,32.77
2023-05-01T10:00:48.370Z,33.19
2023-05-01T10:03:54.557Z,31.75
2023-05-01T10:06:56.619Z,33.39
2023-05-01T10:10:00.100Z,33.81
2023-05-01T10:13:15.031Z,32.20
2023-05-01T10:16:29.319Z,32.34
2023-05-01T10:19:31.101Z,33.72
2023-05-01T10:22:32.869Z,36.12
2023-05-01T10:25:36.741Z,33.57
2023-05-01T10:28:41.048Z,33.85
2023-05-01T10:31:43.282Z,33.16
2023-05-01T10:34:47.893Z,33.07
2023-05-01T10:37:56.587Z,35.45
2023-05-01T10:40:58.266Z,33.98
2023-05-01T10:44:22.848Z,34.00
2023-05-01T10:47:46.231Z,33.90
2023-05-01T10:51:09.696Z,32.43
2023-05-01T10:54:27.592Z,32.49
2023-05-01T10:57:43.104Z,35.34
2023-05-01T11:01:27.402Z,34.79
2023-05-01T11:04:47.951Z,33.92
2023-05-01T11:08:30.694Z,33.65
2023-05-01T11:11:48.254Z,34.03
2023-05-01T11:15:03.999Z,33.90
2023-05-01T11:18:07.116Z,34.31
2023-05-01T11:21:08.756Z,34.55
2023-05-01T11:24:10.410Z,33.99
2023-05-01T11:27:15.426Z,34.47
2023-05-01T11:30:17.225Z,35.13
2023-05-01T11:33:24.438Z,34.81
2023-05-01T11:36:26.792Z,33.53
2023-05-01T11:39:28.807Z,34.09
2023-05-01T11:42:30.466Z,33.59
2023-05-01T11:45:33.112Z,33.11
2023-05-01T11:48:36.565Z,32.66
2023-05-01T11:51:38.190Z,33.22
2023-05-01T11:54:48.018Z,33.36
2023-05-01T11:57:51.073Z,32.59
2023-05-01T12:00:53.976Z,32.46
2023-05-01T12:03:57.097Z,31.43
2023-05-01T12:06:58.620Z,33.07
2023-05-01T12:10:00.734Z,34.25
2023-05-01T12:13:03.149Z,31.76
2023-05-01T12:16:05.607Z,34.05
2023-05-01T12:19:09.385Z,33.61
2023-05-01T12:22:11.074Z,32.04
2023-05-01T12:25:13.686Z,32.32
2023-05-01T12:28:16.583Z,31.42
2023-05-01T12:31:19.691Z,31.78
2023-05-01T12:34:30.118Z,31.76
2023-05-01T12:37:32.359Z,31.49
2023-05-01T12:40:34.257Z,30.46
2023-05-01T12:43:37.436Z,31.49
2023-05-01T12:46:39.018Z,32.02
2023-05-01T12:49:42.416Z,31.86
2023-05-01T12:52:44.214Z,32.58
2023-05-01T12:55:47.685Z,31.42
2023-05-01T12:58:49.896Z,31.29
2023-05-01T13:01:58.672Z,31.23
2023-05-01T13:05:10.169Z,31.82
2023-05-01T13:08:11.794Z,31.68
2023-05-01T13:11:15.215Z,31.74
2023-05-01T13:14:50.475Z,31.65
2023-05-01T13:18:20.496Z,30.80
2023-05-01T13:21:24.094Z,30.89
2023-05-01T13:28:10.534Z,31.19
2023-05-01T13:31:13.375Z,30.50
2023-05-01T13:34:21.070Z,30.23
2023-05-01T13:37:24.573Z,30.29
2023-05-01T13:40:27.633Z,30.25
2023-05-01T13:43:29.688Z,31.22
2023-05-01T13:46:31.453Z,29.64
2023-05-01T13:49:33.265Z,30.04
2023-05-01T13:52:41.610Z,30.39
2023-05-01T13:55:43.288Z,29.66
2023-05-01T13:58:45.124Z,29.54
2023-05-01T14:01:46.794Z,30.38
2023-05-01T14:04:49.168Z,30.75
2023-05-01T14:07:55.248Z,30.17
2023-05-01T14:10:58.443Z,29.27
2023-05-01T14:13:59.898Z,29.79
2023-05-01T14:17:01.438Z,30.11
2023-05-01T14:20:04.158Z,31.13
2023-05-01T14:23:07.263Z,30.30
2023-05-01T14:26:09.495Z,30.93
2023-05-01T14:29:25.703Z,29.95
2023-05-01T14:32:27.717Z,30.10
2023-05-01T14:35:29.738Z,29.11
2023-05-01T14:38:32.865Z,29.87
2023-05-01T14:41:34.405Z,29.59
2023-05-01T14:44:39.221Z,29.76
2023-05-01T14:47:44.121Z,29.92
2023-05-01T14:50:46.072Z,29.30
2023-05-01T14:53:49.284Z,28.57
2023-05-01T14:56:51.198Z,29.73
2023-05-01T14:59:53.092Z,29.67
2023-05-01T15:02:55.112Z,27.87
2023-05-01T15:05:57.274Z,28.12
2023-05-01T15:09:00.482Z,28.67
2023-05-01T15:12:01.972Z,28.20
2023-05-01T15:15:03.591Z,27.94
2023-05-01T15:18:05.289Z,28.43
2023-05-01T15:21:06.980Z,27.91
2023-05-01T15:24:10.248Z,28.65
2023-05-01T15:27:14.498Z,28.56
2023-05-01T15:30:16.397Z,28.71
2023-05-01T15:33:19.317Z,29.31
2023-05-01T15:36:21.310Z,29.31
2023-05-01T15:39:24.426Z,29.54
2023-05-01T15:42:26.239Z,29.46
2023-05-01T15:45:27.948Z,28.57
2023-05-01T15:48:29.642Z,28.86
2023-05-01T15:51:31.267Z,29.56
2023-05-01T15:54:34.646Z,29.29
2023-05-01T15:57:36.290Z,29.44
2023-05-01T16:00:38.246Z,30.28
2023-05-01T16:03:45.021Z,30.23
2023-05-01T16:06:46.873Z,29.47
2023-05-01T16:09:50.014Z,30.57
2023-05-01T16:12:53.232Z,30.03
2023-05-01T16:15:55.018Z,30.96
2023-05-01T16:18:58.662Z,30.36
2023-05-01T16:22:03.044Z,31.42
2023-05-01T16:25:07.544Z,31.08
2023-05-01T16:28:09.235Z,32.30
2023-05-01T16:31:23.543Z,32.15
2023-05-01T16:34:28.933Z,32.66
2023-05-01T16:37:31.186Z,33.65
2023-05-01T16:40:36.317Z,33.79
2023-05-01T16:43:37.916Z,33.62
2023-05-01T16:46:40.800Z,34.68
2023-05-01T16:49:42.595Z,34.04
2023-05-01T16:52:44.269Z,34.11
2023-05-01T16:55:47.572Z,34.77
2023-05-01T16:58:49.592Z,35.64
2023-05-01T17:01:51.366Z,35.81
2023-05-01T17:04:53.442Z,35.89
2023-05-01T17:07:55.441Z,36.47
2023-05-01T17:10:58.520Z,36.54
2023-05-01T17:14:00.166Z,36.89
2023-05-01T17:17:01.847Z,37.31
2023-05-01T17:20:03.796Z,37.65
2023-05-01T17:23:05.833Z,37.83
2023-05-01T17:26:08.859Z,38.54
2023-05-01T17:29:11.124Z,38.11
2023-05-01T17:32:14.439Z,38.68
2023-05-01T17:35:20.316Z,39.16
2023-05-01T17:38:22.192Z,39.01
2023-05-01T17:41:25.268Z,38.97
2023-05-01T17:44:27.144Z,39.72
2023-05-01T17:47:29.216Z,39.54
2023-05-01T17:50:30.984Z,40.72
2023-05-01T17:53:32.717Z,41.01
2023-05-01T17:56:35.955Z,41.59
2023-05-01T17:59:38.398Z,41.89
2023-05-01T18:02:42.033Z,42.72
2023-05-01T18:05:44.029Z,43.02
2023-05-01T18:08:45.885Z,45.10
2023-05-01T18:11:49.960Z,43.11
2023-05-01T18:14:52.545Z,43.47
2023-05-01T18:17:54.954Z,44.20
2023-05-01T18:20:56.698Z,44.89
2023-05-01T18:23:59.513Z,45.62
2023-05-01T18:27:02.590Z,46.64
2023-05-01T18:30:05.666Z,46.05
2023-05-01T18:33:07.900Z,47.09
2023-05-01T18:36:10.088Z,48.96
2023-05-01T18:39:12.608Z,49.41
2023-05-01T18:42:16.078Z,48.96
2023-05-01T18:46:02.687Z,48.24
2023-05-01T18:48:55.966Z,47.97
2023-05-01T18:52:28.334Z,47.66
2023-05-01T18:55:30.493Z,47.25
2023-05-01T18:58:35.151Z,48.01
2023-05-01T19:01:37.227Z,47.60
2023-05-01T19:04:56.188Z,47.83
2023-05-01T19:07:59.941Z,47.57
2023-05-01T19:11:05.103Z,47.90
2023-05-01T19:14:09.055Z,47.73
2023-05-01T19:17:11.752Z,46.96
2023-05-01T19:20:14.059Z,46.57
2023-05-01T19:23:17.159Z,46.90
2023-05-01T19:26:19.483Z,46.62
2023-05-01T19:29:23.072Z,46.18
2023-05-01T19:32:25.762Z,45.39
2023-05-01T19:35:28.451Z,45.17
2023-05-01T19:38:30.749Z,44.77
2023-05-01T19:41:36.368Z,44.96
2023-05-01T19:44:40.559Z,44.97
2023-05-01T19:47:42.830Z,45.54
2023-05-01T19:50:48.245Z,45.53
2023-05-01T19:53:51.343Z,45.63
2023-05-01T19:56:53.219Z,45.93
2023-05-01T19:59:56.812Z,45.98
2023-05-01T20:02:58.663Z,46.60
2023-05-01T20:06:01.837Z,46.24
2023-05-01T20:09:03.778Z,46.32
2023-05-01T20:12:05.439Z,46.94
2023-05-01T20:15:10.974Z,47.47
2023-05-01T20:18:13.065Z,47.38
2023-05-01T20:21:15.071Z,46.84
2023-05-01T20:24:18.609Z,47.77
2023-05-01T20:27:20.758Z,47.74
2023-05-01T20:30:24.085Z,47.75
2023-05-01T20:33:26.082Z,48.17
2023-05-01T20:36:27.735Z,48.21
2023-05-01T20:39:29.966Z,48.25
2023-05-01T20:42:32.011Z,48.81
2023-05-01T20:45:35.464Z,48.19
2023-05-01T20:48:37.415Z,48.61
2023-05-01T20:51:39.133Z,48.90
2023-05-01T20:54:40.992Z,48.67
2023-05-01T20:57:42.883Z,48.14
2023-05-01T21:00:45.889Z,47.99
2023-05-01T21:03:47.605Z,50.39
2023-05-01T21:06:49.406Z,49.32
2023-05-01T21:09:51.165Z,49.78
2023-05-01T21:12:54.348Z,49.35
2023-05-01T21:15:57.624Z,48.92
2023-05-01T21:18:59.360Z,50.15
2023-05-01T21:22:01.049Z,49.75
2023-05-01T21:25:02.713Z,49.88
2023-05-01T21:28:04.792Z,49.48
2023-05-01T21:31:10.229Z,50.53
2023-05-01T21:34:12.818Z,50.47
2023-05-01T21:37:14.435Z,50.28
2023-05-01T21:40:16.132Z,50.11
2023-05-01T21:43:19.225Z,50.55
2023-05-01T21:46:22.268Z,50.12
2023-05-01T21:49:26.416Z,50.42
2023-05-01T21:52:29.039Z,50.34
2023-05-01T21:55:31.642Z,50.14
2023-05-01T21:58:33.284Z,49.52
2023-05-01T22:01:38.900Z,49.72
2023-05-01T22:04:40.714Z,49.63
2023-05-01T22:07:43.721Z,49.40
2023-05-01T22:10:45.468Z,49.91
2023-05-01T22:13:47.325Z,49.77
2023-05-01T22:16:50.895Z,48.56
2023-05-01T22:19:53.360Z,48.89
2023-05-01T22:22:55.292Z,48.63
2023-05-01T22:25:57.461Z,48.75
2023-05-01T22:28:59.330Z,49.18
2023-05-01T22:32:02.351Z,49.11
2023-05-01T22:35:04.725Z,49.10
2023-05-01T22:38:06.406Z,49.45
2023-05-01T22:41:08.503Z,49.61
2023-05-01T22:44:10.081Z,49.58
2023-05-01T22:47:13.051Z,50.12
2023-05-01T22:50:14.747Z,49.82
2023-05-01T22:53:16.626Z,50.03
2023-05-01T22:56:18.241Z,49.43
2023-05-01T22:59:20.197Z,48.24
2023-05-01T23:02:23.265Z,48.75
2023-05-01T23:05:25.162Z,48.91
2023-05-01T23:08:27.066Z,49.15
2023-05-01T23:11:30.944Z,48.59
2023-05-01T23:14:33.118Z,49.04
2023-05-01T23:17:36.050Z,48.86
2023-05-01T23:20:40.316Z,49.92
2023-05-01T23:23:42.485Z,50.04
2023-05-01T23:26:44.220Z,48.84
2023-05-01T23:29:53.037Z,49.59
2023-05-01T23:32:58.239Z,49.46
2023-05-01T23:36:00.483Z,49.07
2023-05-01T23:39:02.107Z,49.44
2023-05-01T23:42:03.940Z,48.93
2023-05-01T23:45:06.848Z,49.58
2023-05-01T23:48:10.432Z,49.75
2023-05-01T23:51:11.925Z,49.65
2023-05-01T23:54:13.538Z,49.52
2023-05-01T23:57:15.351Z,49.73
